createdAt,value
2019-06-15T00:02:26.922Z,64.70
2019-06-15T00:04:55.794Z,64.80
2019-06-15T00:07:24.608Z,65.70
2019-06-15T00:09:53.495Z,65.70
2019-06-15T00:12:22.331Z,65.70
2019-06-15T00:14:51.200Z,65.50
2019-06-15T00:17:20.088Z,65.60
2019-06-15T00:19:48.908Z,65.70
2019-06-15T00:22:17.863Z,65.60
2019-06-15T00:24:46.720Z,65.70
2019-06-15T00:27:15.667Z,65.90
2019-06-15T00:29:44.470Z,66.40
2019-06-15T00:32:13.340Z,66.30
2019-06-15T00:34:42.125Z,66.50
2019-06-15T00:37:10.934Z,66.70
2019-06-15T00:39:39.742Z,66.70
2019-06-15T00:42:08.553Z,66.40
2019-06-15T00:44:37.490Z,66.80
2019-06-15T00:47:06.429Z,66.70
2019-06-15T00:49:35.206Z,66.70
2019-06-15T00:52:04.241Z,67.20
2019-06-15T00:54:33.056Z,67.20
2019-06-15T00:57:01.864Z,67.90
2019-06-15T00:59:30.728Z,67.20
2019-06-15T01:01:59.577Z,67.10
2019-06-15T01:04:28.537Z,67.10
2019-06-15T01:06:57.361Z,68.00
2019-06-15T01:09:26.258Z,67.20
2019-06-15T01:11:55.069Z,67.20
2019-06-15T01:14:23.917Z,67.10
2019-06-15T01:16:52.770Z,67.20
2019-06-15T01:19:21.776Z,67.20
2019-06-15T01:21:50.772Z,67.30
2019-06-15T01:24:19.568Z,67.30
2019-06-15T01:26:48.447Z,67.30
2019-06-15T01:29:17.483Z,67.40
2019-06-15T01:31:46.323Z,67.50
2019-06-15T01:34:15.215Z,67.40
2019-06-15T01:36:44.014Z,67.50
2019-06-15T01:39:12.844Z,68.60
2019-06-15T01:41:41.738Z,68.50
2019-06-15T01:44:10.621Z,68.30
2019-06-15T01:46:39.644Z,68.20
2019-06-15T01:49:08.486Z,68.00
2019-06-15T01:51:37.361Z,68.20
2019-06-15T01:54:06.348Z,67.90
2019-06-15T01:56:35.166Z,68.00
2019-06-15T01:59:04.132Z,67.90
2019-06-15T02:01:33.066Z,68.10
2019-06-15T02:04:01.940Z,68.10
2019-06-15T02:06:30.900Z,68.70
2019-06-15T02:08:59.720Z,68.30
2019-06-15T02:11:28.613Z,68.30
2019-06-15T02:13:57.518Z,68.40
2019-06-15T02:16:26.366Z,68.60
2019-06-15T02:18:55.549Z,68.80
2019-06-15T02:21:24.393Z,68.80
2019-06-15T02:23:53.331Z,68.90
2019-06-15T02:26:22.392Z,70.00
2019-06-15T02:28:51.220Z,70.00
2019-06-15T02:31:20.046Z,69.90
2019-06-15T02:33:48.932Z,69.80
2019-06-15T02:36:17.916Z,69.80
2019-06-15T02:38:46.873Z,69.80
2019-06-15T02:41:15.761Z,69.80
2019-06-15T02:43:44.743Z,70.20
2019-06-15T02:46:13.719Z,70.40
2019-06-15T02:48:42.593Z,70.60
2019-06-15T02:51:11.501Z,70.80
2019-06-15T02:53:40.293Z,71.40
2019-06-15T02:56:09.268Z,71.20
2019-06-15T02:58:38.243Z,71.70
2019-06-15T03:01:09.070Z,71.90
2019-06-15T03:03:37.970Z,71.90
2019-06-15T03:06:07.129Z,72.30
2019-06-15T03:08:36.300Z,72.30
2019-06-15T03:11:05.978Z,74.70
2019-06-15T03:13:35.845Z,74.30
2019-06-15T03:16:05.770Z,74.30
2019-06-15T03:18:34.590Z,74.70
2019-06-15T03:21:03.620Z,75.20
2019-06-15T03:23:32.453Z,74.50
2019-06-15T03:26:05.457Z,75.00
2019-06-15T03:28:32.095Z,74.50
2019-06-15T03:31:00.927Z,74.60
2019-06-15T03:33:29.748Z,74.50
2019-06-15T03:35:58.670Z,74.60
2019-06-15T03:38:27.587Z,74.80
2019-06-15T03:40:56.435Z,74.60
2019-06-15T03:43:25.736Z,74.70
2019-06-15T03:45:54.549Z,74.80
2019-06-15T03:48:23.357Z,74.80
2019-06-15T03:50:52.212Z,75.10
2019-06-15T03:53:21.116Z,75.40
2019-06-15T03:55:49.965Z,75.70
2019-06-15T03:58:18.813Z,75.30
2019-06-15T04:01:01.279Z,76.30
2019-06-15T04:03:30.129Z,76.30
2019-06-15T04:05:59.026Z,78.00
2019-06-15T04:08:27.851Z,77.70
2019-06-15T04:10:56.811Z,77.10
2019-06-15T04:13:25.622Z,77.30
2019-06-15T04:15:54.532Z,77.10
2019-06-15T04:18:23.451Z,77.30
2019-06-15T04:20:52.358Z,77.40
2019-06-15T04:23:21.303Z,77.40
2019-06-15T04:25:50.263Z,77.30
2019-06-15T04:28:19.248Z,77.30
2019-06-15T04:30:48.151Z,77.60
2019-06-15T04:33:17.156Z,77.60
2019-06-15T04:35:46.127Z,77.60
2019-06-15T04:38:15.123Z,78.00
2019-06-15T04:40:43.978Z,77.80
2019-06-15T04:43:12.902Z,78.10
2019-06-15T04:45:41.750Z,78.30
2019-06-15T04:48:10.569Z,78.10
2019-06-15T04:50:39.509Z,78.30
2019-06-15T04:53:08.381Z,79.00
2019-06-15T04:55:37.350Z,79.10
2019-06-15T04:58:06.273Z,79.30
2019-06-15T05:00:35.145Z,79.20
2019-06-15T05:03:04.212Z,79.80
2019-06-15T05:05:33.270Z,79.80
2019-06-15T05:08:02.210Z,79.90
2019-06-15T05:10:31.027Z,79.70
2019-06-15T05:12:59.857Z,79.90
2019-06-15T05:15:28.744Z,79.80
2019-06-15T05:17:57.701Z,80.20
2019-06-15T05:20:26.576Z,80.60
2019-06-15T05:22:55.565Z,80.70
2019-06-15T05:25:24.637Z,80.50
2019-06-15T05:27:53.683Z,81.00
2019-06-15T05:30:22.769Z,81.00
2019-06-15T05:32:51.578Z,81.10
2019-06-15T05:35:23.502Z,81.30
2019-06-15T05:37:51.206Z,81.40
2019-06-15T05:40:20.237Z,81.70
2019-06-15T05:42:49.137Z,81.40
2019-06-15T05:45:18.333Z,82.20
2019-06-15T05:47:47.154Z,82.80
2019-06-15T05:50:17.082Z,82.90
2019-06-15T05:52:45.909Z,84.10
2019-06-15T05:55:14.886Z,83.90
2019-06-15T05:57:43.761Z,83.80
2019-06-15T06:00:14.517Z,82.50
2019-06-15T06:02:43.359Z,82.30
2019-06-15T06:05:12.348Z,82.20
2019-06-15T06:07:41.360Z,82.00
2019-06-15T06:10:11.153Z,81.90
2019-06-15T06:12:40.202Z,82.90
2019-06-15T06:15:09.566Z,82.50
2019-06-15T06:17:38.453Z,82.80
2019-06-15T06:20:09.305Z,82.90
2019-06-15T06:22:38.111Z,83.10
2019-06-15T06:25:07.177Z,82.00
2019-06-15T06:27:37.796Z,82.50
2019-06-15T06:30:08.182Z,81.60
2019-06-15T06:32:37.111Z,81.90
2019-06-15T06:35:06.463Z,82.10
2019-06-15T06:37:35.299Z,81.30
2019-06-15T06:40:05.422Z,81.50
2019-06-15T06:42:34.385Z,81.20
2019-06-15T06:45:03.413Z,81.50
2019-06-15T06:47:32.270Z,82.10
2019-06-15T06:50:01.164Z,82.00
2019-06-15T06:52:29.998Z,82.00
2019-06-15T06:54:58.860Z,81.50
2019-06-15T06:57:27.772Z,81.80
2019-06-15T06:59:56.624Z,81.40
2019-06-15T07:02:25.417Z,80.80
2019-06-15T07:04:54.318Z,80.80
2019-06-15T07:07:23.166Z,81.10
2019-06-15T07:09:52.003Z,80.90
2019-06-15T07:12:20.797Z,80.90
2019-06-15T07:14:49.605Z,80.80
2019-06-15T07:17:18.433Z,81.30
2019-06-15T07:19:47.917Z,81.90
2019-06-15T07:22:16.865Z,82.50
2019-06-15T07:24:45.752Z,82.90
2019-06-15T07:27:15.462Z,83.30
2019-06-15T07:29:44.379Z,83.10
2019-06-15T07:32:13.382Z,83.10
2019-06-15T07:34:42.202Z,83.00
2019-06-15T07:37:11.006Z,82.50
2019-06-15T07:39:39.873Z,82.00
2019-06-15T07:42:08.818Z,84.70
2019-06-15T07:44:37.718Z,83.50
2019-06-15T07:47:06.673Z,83.10
2019-06-15T07:49:35.636Z,83.20
2019-06-15T07:52:04.532Z,83.20
2019-06-15T07:54:36.203Z,82.30
2019-06-15T07:57:04.172Z,82.70
2019-06-15T07:59:33.183Z,82.90
2019-06-15T08:02:02.142Z,82.90
2019-06-15T08:04:31.017Z,83.40
2019-06-15T08:06:59.864Z,83.00
2019-06-15T08:09:28.664Z,83.10
2019-06-15T08:11:57.613Z,83.00
2019-06-15T08:14:26.450Z,82.30
2019-06-15T08:16:55.284Z,82.10
2019-06-15T08:19:24.284Z,82.60
2019-06-15T08:21:53.170Z,82.70
2019-06-15T08:24:22.027Z,82.00
2019-06-15T08:26:50.846Z,82.30
2019-06-15T08:29:19.797Z,82.60
2019-06-15T08:31:48.771Z,82.90
2019-06-15T08:34:17.663Z,82.60
2019-06-15T08:36:46.502Z,82.50
2019-06-15T08:39:15.341Z,82.50
2019-06-15T08:41:44.272Z,82.80
2019-06-15T08:44:13.139Z,84.40
2019-06-15T08:46:42.208Z,84.30
2019-06-15T08:49:11.047Z,84.20
2019-06-15T08:51:40.045Z,84.10
2019-06-15T08:54:08.990Z,83.40
2019-06-15T08:56:38.303Z,83.50
2019-06-15T08:59:07.197Z,84.00
2019-06-15T09:01:36.080Z,84.30
2019-06-15T09:04:05.081Z,83.20
2019-06-15T09:06:33.969Z,82.90
2019-06-15T09:09:03.066Z,83.10
2019-06-15T09:11:31.923Z,82.50
2019-06-15T09:14:00.885Z,82.20
2019-06-15T09:16:29.665Z,81.80
2019-06-15T09:18:58.461Z,82.30
2019-06-15T09:21:27.294Z,81.90
2019-06-15T09:23:56.111Z,81.50
2019-06-15T09:26:24.910Z,81.40
2019-06-15T09:28:53.740Z,81.00
2019-06-15T09:31:22.650Z,80.60
2019-06-15T09:33:51.501Z,80.40
2019-06-15T09:36:20.427Z,80.80
2019-06-15T09:38:49.362Z,80.50
2019-06-15T09:41:18.185Z,79.10
2019-06-15T09:43:46.989Z,79.30
2019-06-15T09:46:15.991Z,79.10
2019-06-15T09:48:44.867Z,78.50
2019-06-15T09:51:13.777Z,79.00
2019-06-15T09:53:42.705Z,79.40
2019-06-15T09:56:11.549Z,79.20
2019-06-15T09:58:40.443Z,78.60
2019-06-15T10:01:09.342Z,78.40
2019-06-15T10:03:38.202Z,77.70
2019-06-15T10:06:11.603Z,78.40
2019-06-15T10:08:37.823Z,77.20
2019-06-15T10:11:06.698Z,76.40
2019-06-15T10:13:35.524Z,76.20
2019-06-15T10:16:04.401Z,75.90
2019-06-15T10:18:33.367Z,75.00
2019-06-15T10:21:02.221Z,73.90
2019-06-15T10:23:31.194Z,73.60
2019-06-15T10:26:00.012Z,74.30
2019-06-15T10:28:28.824Z,73.40
2019-06-15T10:31:00.612Z,73.80
2019-06-15T10:33:28.417Z,73.00
2019-06-15T10:35:57.334Z,72.80
2019-06-15T10:38:26.197Z,72.20
2019-06-15T10:40:55.114Z,72.60
2019-06-15T10:43:23.984Z,71.60
2019-06-15T10:45:52.879Z,72.10
2019-06-15T10:48:21.662Z,72.80
2019-06-15T10:50:50.501Z,72.40
2019-06-15T10:53:19.291Z,72.10
2019-06-15T10:55:48.253Z,71.10
2019-06-15T10:58:17.143Z,71.30
2019-06-15T11:00:48.901Z,71.30
2019-06-15T11:03:17.525Z,70.60
2019-06-15T11:05:46.462Z,70.30
2019-06-15T11:08:15.301Z,70.40
2019-06-15T11:11:10.208Z,70.60
2019-06-15T11:13:39.052Z,70.90
2019-06-15T11:16:07.899Z,71.70
2019-06-15T11:18:37.450Z,71.20
2019-06-15T11:21:06.265Z,71.50
2019-06-15T11:23:35.353Z,71.80
2019-06-15T11:26:04.497Z,71.90
2019-06-15T11:28:33.482Z,71.30
2019-06-15T11:31:02.388Z,71.20
2019-06-15T11:33:31.350Z,70.90
2019-06-15T11:36:00.420Z,70.60
2019-06-15T11:38:29.396Z,70.50
2019-06-15T11:40:58.409Z,70.00
2019-06-15T11:43:27.332Z,69.20
2019-06-15T11:45:56.263Z,69.10
2019-06-15T11:48:25.242Z,69.40
2019-06-15T11:50:54.136Z,68.70
2019-06-15T11:53:23.048Z,69.00
2019-06-15T11:55:51.896Z,69.40
2019-06-15T11:58:20.763Z,68.80
2019-06-15T12:00:49.735Z,69.20
2019-06-15T12:03:18.624Z,69.00
2019-06-15T12:05:47.601Z,68.80
2019-06-15T12:08:16.499Z,68.70
2019-06-15T12:10:45.506Z,68.50
2019-06-15T12:13:14.386Z,68.80
2019-06-15T12:15:43.264Z,68.30
2019-06-15T12:18:12.183Z,68.00
2019-06-15T12:20:40.984Z,68.30
2019-06-15T12:23:09.981Z,68.90
2019-06-15T12:25:41.052Z,68.70
2019-06-15T12:28:10.044Z,68.50
2019-06-15T12:30:46.820Z,68.50
2019-06-15T12:33:10.343Z,68.70
2019-06-15T12:35:39.123Z,68.60
2019-06-15T12:38:07.980Z,69.00
2019-06-15T12:40:36.946Z,68.40
2019-06-15T12:43:05.872Z,68.00
2019-06-15T12:45:34.904Z,68.00
2019-06-15T12:48:03.814Z,68.10
2019-06-15T12:50:32.769Z,68.30
2019-06-15T12:53:01.655Z,68.10
2019-06-15T12:55:31.020Z,67.50
2019-06-15T12:58:00.034Z,68.40
2019-06-15T13:00:35.115Z,68.00
2019-06-15T13:03:04.281Z,68.70
2019-06-15T13:05:33.331Z,68.90
2019-06-15T13:08:02.236Z,67.20
2019-06-15T13:10:31.051Z,67.40
2019-06-15T13:12:59.978Z,68.30
2019-06-15T13:15:29.046Z,67.80
2019-06-15T13:17:57.886Z,67.40
2019-06-15T13:20:29.363Z,67.20
2019-06-15T13:22:58.377Z,66.60
2019-06-15T13:25:27.252Z,66.20
2019-06-15T13:27:56.187Z,66.50
2019-06-15T13:30:26.389Z,66.70
2019-06-15T13:32:55.373Z,66.80
2019-06-15T13:35:24.270Z,66.60
2019-06-15T13:37:53.062Z,66.60
2019-06-15T13:40:21.910Z,65.90
2019-06-15T13:42:50.714Z,64.30
2019-06-15T13:45:21.202Z,64.70
2019-06-15T13:47:50.056Z,64.60
2019-06-15T13:50:19.069Z,64.00
2019-06-15T13:52:48.090Z,64.40
2019-06-15T13:55:17.102Z,63.70
2019-06-15T13:57:46.018Z,63.30
2019-06-15T14:00:15.003Z,62.70
2019-06-15T14:02:43.886Z,63.60
2019-06-15T14:05:13.383Z,62.50
2019-06-15T14:07:42.282Z,62.80
2019-06-15T14:10:11.684Z,62.50
2019-06-15T14:12:40.792Z,62.90
2019-06-15T14:15:09.845Z,63.00
2019-06-15T14:17:39.943Z,63.30
2019-06-15T14:20:09.616Z,63.00
2019-06-15T14:22:38.498Z,62.90
2019-06-15T14:25:08.286Z,62.90
2019-06-15T14:27:37.248Z,61.90
2019-06-15T14:30:06.425Z,62.60
2019-06-15T14:32:35.414Z,63.00
2019-06-15T14:35:04.900Z,62.90
2019-06-15T14:37:33.928Z,62.50
2019-06-15T14:40:02.842Z,63.00
2019-06-15T14:42:31.911Z,63.00
2019-06-15T14:45:00.725Z,63.10
2019-06-15T14:47:29.657Z,62.70
2019-06-15T14:49:58.623Z,62.00
2019-06-15T14:52:27.545Z,62.20
2019-06-15T14:54:56.778Z,62.10
2019-06-15T14:57:27.010Z,61.60
2019-06-15T15:00:05.968Z,61.50
2019-06-15T15:02:33.164Z,61.20
2019-06-15T15:05:02.023Z,61.10
2019-06-15T15:07:30.831Z,61.30
2019-06-15T15:09:59.729Z,61.30
2019-06-15T15:12:28.635Z,61.30
2019-06-15T15:14:57.547Z,61.40
2019-06-15T15:17:27.055Z,61.60
2019-06-15T15:19:57.324Z,61.30
2019-06-15T15:22:26.962Z,61.70
2019-06-15T15:24:56.308Z,61.00
2019-06-15T15:27:27.148Z,60.70
2019-06-15T15:29:57.084Z,60.80
2019-06-15T15:32:31.109Z,60.70
2019-06-15T15:34:56.913Z,60.50
2019-06-15T15:37:26.736Z,60.00
2019-06-15T15:39:56.542Z,60.60
2019-06-15T15:42:26.946Z,60.50
2019-06-15T15:44:56.626Z,60.50
2019-06-15T15:47:27.422Z,59.90
2019-06-15T15:49:57.583Z,59.80
2019-06-15T15:52:27.223Z,60.10
2019-06-15T15:54:56.690Z,60.50
2019-06-15T15:57:26.626Z,60.70
2019-06-15T15:59:56.469Z,60.80
2019-06-15T16:02:35.543Z,60.90
2019-06-15T16:04:57.540Z,61.00
2019-06-15T16:07:27.753Z,60.90
2019-06-15T16:09:57.024Z,60.90
2019-06-15T16:12:25.826Z,61.20
2019-06-15T16:14:56.499Z,61.40
2019-06-15T16:17:26.773Z,61.60
2019-06-15T16:19:56.387Z,61.90
2019-06-15T16:22:26.324Z,61.40
2019-06-15T16:24:56.476Z,61.50
2019-06-15T16:27:26.590Z,61.70
2019-06-15T16:29:57.005Z,61.80
2019-06-15T16:32:26.387Z,61.50
2019-06-15T16:34:55.477Z,61.20
2019-06-15T16:37:26.028Z,61.10
2019-06-15T16:39:54.866Z,60.00
2019-06-15T16:42:23.687Z,59.70
2019-06-15T16:44:52.507Z,59.80
2019-06-15T16:47:21.370Z,59.60
2019-06-15T16:49:50.231Z,59.50
2019-06-15T16:52:19.080Z,59.90
2019-06-15T16:54:48.031Z,60.10
2019-06-15T16:57:16.936Z,60.30
2019-06-15T16:59:46.800Z,61.10
2019-06-15T17:02:17.221Z,60.80
2019-06-15T17:04:46.811Z,60.20
2019-06-15T17:07:17.416Z,59.50
2019-06-15T17:09:46.652Z,59.20
2019-06-15T17:12:16.936Z,59.00
2019-06-15T17:14:47.659Z,58.90
2019-06-15T17:17:17.312Z,58.90
2019-06-15T17:19:46.861Z,59.00
2019-06-15T17:22:21.071Z,58.90
2019-06-15T17:24:46.334Z,59.20
2019-06-15T17:27:17.044Z,59.20
2019-06-15T17:29:46.886Z,59.40
2019-06-15T17:32:17.068Z,59.10
2019-06-15T17:34:46.894Z,58.90
2019-06-15T17:37:17.273Z,58.70
2019-06-15T17:39:46.779Z,58.60
2019-06-15T17:42:16.442Z,58.50
2019-06-15T17:44:46.231Z,59.00
2019-06-15T17:47:16.911Z,59.30
2019-06-15T17:49:46.924Z,59.40
2019-06-15T17:52:16.828Z,59.50
2019-06-15T17:54:46.701Z,59.60
2019-06-15T17:57:15.613Z,59.60
2019-06-15T17:59:46.895Z,59.80
2019-06-15T18:02:17.094Z,60.10
2019-06-15T18:04:47.558Z,61.20
2019-06-15T18:07:16.961Z,60.60
2019-06-15T18:09:46.596Z,60.50
2019-06-15T18:12:16.245Z,61.00
2019-06-15T18:14:46.417Z,60.90
2019-06-15T18:17:17.156Z,61.00
2019-06-15T18:19:47.033Z,61.20
2019-06-15T18:22:17.039Z,61.30
2019-06-15T18:24:46.688Z,61.70
2019-06-15T18:27:16.915Z,61.50
2019-06-15T18:29:46.517Z,61.60
2019-06-15T18:32:17.140Z,61.70
2019-06-15T18:34:46.566Z,61.80
2019-06-15T18:37:17.285Z,62.40
2019-06-15T18:39:46.873Z,62.40
2019-06-15T18:42:16.447Z,61.90
2019-06-15T18:44:47.815Z,62.00
2019-06-15T18:47:16.618Z,62.10
2019-06-15T18:49:47.319Z,62.20
2019-06-15T18:52:17.075Z,62.40
2019-06-15T18:54:46.747Z,62.30
2019-06-15T18:57:17.612Z,62.50
2019-06-15T18:59:47.372Z,62.90
2019-06-15T19:02:16.587Z,62.80
2019-06-15T19:04:45.493Z,62.80
2019-06-15T19:07:16.217Z,63.10
2019-06-15T19:09:46.555Z,63.20
2019-06-15T19:12:18.577Z,62.90
2019-06-15T19:14:47.039Z,63.00
2019-06-15T19:17:16.580Z,62.80
2019-06-15T19:19:46.788Z,62.70
2019-06-15T19:22:17.171Z,62.80
2019-06-15T19:24:50.337Z,62.90
2019-06-15T19:27:16.855Z,62.70
2019-06-15T19:29:46.580Z,63.00
2019-06-15T19:32:17.243Z,62.90
2019-06-15T19:34:48.767Z,63.30
2019-06-15T19:37:16.972Z,63.40
2019-06-15T19:39:46.386Z,63.40
2019-06-15T19:42:15.568Z,63.50
2019-06-15T19:44:44.450Z,63.60
2019-06-15T19:47:16.185Z,64.20
2019-06-15T19:49:46.564Z,63.90
2019-06-15T19:52:16.747Z,64.00
2019-06-15T19:54:45.110Z,64.20
2019-06-15T19:57:14.092Z,64.40
2019-06-15T19:59:42.986Z,64.60
2019-06-15T20:02:12.074Z,64.80
2019-06-15T20:04:53.918Z,64.90
2019-06-15T20:07:11.588Z,65.10
2019-06-15T20:09:40.476Z,65.00
2019-06-15T20:12:18.173Z,65.20
2019-06-15T20:14:40.026Z,65.40
2019-06-15T20:17:08.892Z,65.50
2019-06-15T20:19:37.796Z,65.60
2019-06-15T20:22:06.824Z,65.70
2019-06-15T20:24:36.486Z,65.90
2019-06-15T20:27:10.077Z,65.90
2019-06-15T20:29:36.476Z,66.20
2019-06-15T20:32:06.831Z,66.20
2019-06-15T20:34:37.078Z,66.60
2019-06-15T20:37:06.203Z,66.70
2019-06-15T20:39:36.305Z,67.00
2019-06-15T20:42:07.906Z,67.20
2019-06-15T20:44:36.727Z,67.20
2019-06-15T20:47:06.595Z,69.00
2019-06-15T20:49:36.926Z,68.70
2019-06-15T20:52:07.050Z,68.90
2019-06-15T20:54:36.198Z,68.80
2019-06-15T20:57:06.401Z,68.60
2019-06-15T20:59:37.013Z,68.80
2019-06-15T21:02:06.694Z,68.80
2019-06-15T21:04:36.468Z,68.80
2019-06-15T21:07:06.601Z,68.80
2019-06-15T21:09:36.411Z,68.90
2019-06-15T21:12:06.596Z,68.80
2019-06-15T21:14:36.623Z,68.90
2019-06-15T21:17:06.702Z,68.80
2019-06-15T21:19:36.205Z,68.80
2019-06-15T21:22:06.309Z,68.90
2019-06-15T21:24:37.281Z,69.00
2019-06-15T21:27:06.345Z,68.90
2019-06-15T21:29:37.034Z,69.20
2019-06-15T21:32:06.316Z,69.20
2019-06-15T21:34:36.173Z,69.40
2019-06-15T21:37:06.586Z,69.70
2019-06-15T21:39:36.458Z,69.70
2019-06-15T21:42:05.826Z,70.90
2019-06-15T21:44:36.105Z,70.80
2019-06-15T21:47:06.948Z,70.60
2019-06-15T21:49:35.960Z,71.10
2019-06-15T21:52:07.107Z,70.30
2019-06-15T21:54:36.044Z,70.20
2019-06-15T21:57:07.015Z,70.30
2019-06-15T21:59:36.914Z,70.50
2019-06-15T22:02:06.973Z,70.50
2019-06-15T22:04:36.962Z,70.50
2019-06-15T22:07:06.594Z,71.40
2019-06-15T22:09:36.416Z,70.70
2019-06-15T22:12:06.847Z,70.70
2019-06-15T22:14:35.976Z,70.50
2019-06-15T22:17:06.728Z,70.60
2019-06-15T22:19:36.902Z,70.70
2019-06-15T22:22:07.474Z,70.70
2019-06-15T22:24:36.647Z,70.60
2019-06-15T22:27:06.631Z,70.70
2019-06-15T22:29:36.502Z,70.90
2019-06-15T22:32:06.809Z,71.10
2019-06-15T22:34:36.423Z,71.10
2019-06-15T22:37:06.848Z,71.10
2019-06-15T22:39:37.042Z,71.90
2019-06-15T22:42:06.823Z,72.10
2019-06-15T22:44:37.263Z,72.10
2019-06-15T22:47:06.994Z,72.10
2019-06-15T22:49:36.166Z,72.10
2019-06-15T22:52:06.580Z,72.10
2019-06-15T22:54:37.678Z,72.20
2019-06-15T22:57:06.364Z,72.40
2019-06-15T22:59:35.281Z,72.50
2019-06-15T23:02:06.952Z,72.60
2019-06-15T23:04:37.195Z,72.70
2019-06-15T23:07:06.902Z,72.80
2019-06-15T23:09:36.177Z,72.80
2019-06-15T23:12:07.128Z,73.00
2019-06-15T23:14:40.969Z,73.20
2019-06-15T23:17:09.768Z,73.20
2019-06-15T23:19:38.643Z,73.40
2019-06-15T23:22:07.841Z,73.40
2019-06-15T23:24:36.886Z,73.40
2019-06-15T23:27:06.779Z,73.40
2019-06-15T23:29:36.826Z,73.70
2019-06-15T23:32:06.376Z,73.70
2019-06-15T23:34:37.312Z,74.70
2019-06-15T23:37:07.987Z,74.80
2019-06-15T23:39:36.904Z,74.40
2019-06-15T23:42:06.218Z,74.40
2019-06-15T23:44:36.085Z,74.20
2019-06-15T23:47:05.138Z,74.10
2019-06-15T23:49:36.521Z,74.20
2019-06-15T23:52:06.849Z,74.10
2019-06-15T23:54:36.995Z,74.50
2019-06-15T23:57:06.393Z,74.50
2019-06-15T23:59:37.263Z,74.40
